createdAt,value
2022-11-12T00:01:08.850Z,8.50
2022-11-12T00:03:36.387Z,8.40
2022-11-12T00:06:03.990Z,8.40
2022-11-12T00:08:31.524Z,8.30
2022-11-12T00:10:59.060Z,8.30
2022-11-12T00:13:26.611Z,8.30
2022-11-12T00:15:54.145Z,8.20
2022-11-12T00:18:21.680Z,8.20
2022-11-12T00:20:50.041Z,8.20
2022-11-12T00:23:17.578Z,8.10
2022-11-12T00:25:45.121Z,8.20
2022-11-12T00:28:12.676Z,8.20
2022-11-12T00:30:40.209Z,8.40
2022-11-12T00:33:07.768Z,8.40
2022-11-12T00:35:36.282Z,8.30
2022-11-12T00:38:03.806Z,8.30
2022-11-12T00:40:31.371Z,8.20
2022-11-12T00:42:58.895Z,8.20
2022-11-12T00:45:26.468Z,8.20
2022-11-12T00:47:54.773Z,8.10
2022-11-12T00:50:22.363Z,8.10
2022-11-12T00:52:50.503Z,8.10
2022-11-12T00:55:17.958Z,8.10
2022-11-12T00:57:45.512Z,8.00
2022-11-12T01:00:13.213Z,8.00
2022-11-12T01:02:45.291Z,8.00
2022-11-12T01:05:08.324Z,8.00
2022-11-12T01:07:35.850Z,7.90
2022-11-12T01:10:03.393Z,7.90
2022-11-12T01:12:31.731Z,7.80
2022-11-12T01:14:59.312Z,7.80
2022-11-12T01:17:26.836Z,7.80
2022-11-12T01:19:54.435Z,8.00
2022-11-12T01:22:21.983Z,8.00
2022-11-12T01:24:49.496Z,8.00
2022-11-12T01:27:17.063Z,8.10
2022-11-12T01:29:44.586Z,8.10
2022-11-12T01:32:12.891Z,7.90
2022-11-12T01:34:40.444Z,7.90
2022-11-12T01:37:07.979Z,7.90
2022-11-12T01:39:36.281Z,7.80
2022-11-12T01:42:03.865Z,7.80
2022-11-12T01:44:31.400Z,7.70
2022-11-12T01:47:08.192Z,7.60
2022-11-12T01:49:35.770Z,7.50
2022-11-12T01:52:03.294Z,7.50
2022-11-12T01:54:30.842Z,7.40
2022-11-12T01:56:58.525Z,7.40
2022-11-12T01:59:28.719Z,7.30
2022-11-12T02:01:56.248Z,7.30
2022-11-12T02:04:23.808Z,7.20
2022-11-12T02:06:51.392Z,7.20
2022-11-12T02:09:18.876Z,7.10
2022-11-12T02:11:46.460Z,7.10
2022-11-12T02:14:13.996Z,7.20
2022-11-12T02:16:41.544Z,7.20
2022-11-12T02:19:09.718Z,7.20
2022-11-12T02:21:37.242Z,7.10
2022-11-12T02:24:05.535Z,7.00
2022-11-12T02:26:33.077Z,7.00
2022-11-12T02:29:01.377Z,7.00
2022-11-12T02:31:28.907Z,7.00
2022-11-12T02:33:57.251Z,7.00
2022-11-12T02:36:24.789Z,7.00
2022-11-12T02:38:52.335Z,7.10
2022-11-12T02:41:19.912Z,7.00
2022-11-12T02:43:47.452Z,7.00
2022-11-12T02:46:14.978Z,7.00
2022-11-12T02:48:43.310Z,7.00
2022-11-12T02:51:10.846Z,7.00
2022-11-12T02:53:38.391Z,7.00
2022-11-12T02:56:06.711Z,7.00
2022-11-12T02:58:34.303Z,7.00
2022-11-12T03:01:01.901Z,7.00
2022-11-12T03:03:29.669Z,7.00
2022-11-12T03:05:57.240Z,7.00
2022-11-12T03:08:25.247Z,7.00
2022-11-12T03:10:52.339Z,7.00
2022-11-12T03:13:19.876Z,7.00
2022-11-12T03:15:48.186Z,6.90
2022-11-12T03:18:16.081Z,6.90
2022-11-12T03:20:43.629Z,6.90
2022-11-12T03:23:11.140Z,6.90
2022-11-12T03:25:40.154Z,6.90
2022-11-12T03:28:07.681Z,6.90
2022-11-12T03:30:35.206Z,6.90
2022-11-12T03:33:02.765Z,6.90
2022-11-12T03:35:30.283Z,6.90
2022-11-12T03:37:58.566Z,7.00
2022-11-12T03:40:26.133Z,6.90
2022-11-12T03:42:53.658Z,7.00
2022-11-12T03:45:21.940Z,7.00
2022-11-12T03:47:50.965Z,7.00
2022-11-12T03:50:18.488Z,7.00
2022-11-12T03:52:46.825Z,7.00
2022-11-12T03:55:14.389Z,7.00
2022-11-12T03:57:41.922Z,7.00
2022-11-12T04:00:09.691Z,6.90
2022-11-12T04:02:37.246Z,7.10
2022-11-12T04:05:22.686Z,7.10
2022-11-12T04:08:02.680Z,7.00
2022-11-12T04:10:30.205Z,7.00
2022-11-12T04:13:16.812Z,6.90
2022-11-12T04:15:45.115Z,6.90
2022-11-12T04:18:30.988Z,6.90
2022-11-12T04:21:16.444Z,6.90
2022-11-12T04:23:44.775Z,6.80
2022-11-12T04:26:24.361Z,6.80
2022-11-12T04:29:10.888Z,6.80
2022-11-12T04:31:38.457Z,6.80
2022-11-12T04:34:25.110Z,6.80
2022-11-12T04:36:52.602Z,6.80
2022-11-12T04:39:20.138Z,6.80
2022-11-12T04:42:06.115Z,6.70
2022-11-12T04:44:51.534Z,6.70
2022-11-12T04:47:19.084Z,6.70
2022-11-12T04:49:47.394Z,6.60
2022-11-12T04:52:14.927Z,6.60
2022-11-12T04:54:42.478Z,6.60
2022-11-12T04:57:10.776Z,6.60
2022-11-12T04:59:38.300Z,6.50
2022-11-12T05:02:06.652Z,6.60
2022-11-12T05:04:34.184Z,6.50
2022-11-12T05:07:01.779Z,6.60
2022-11-12T05:09:29.316Z,6.50
2022-11-12T05:11:56.840Z,6.60
2022-11-12T05:14:24.374Z,6.50
2022-11-12T05:16:53.854Z,6.60
2022-11-12T05:19:21.377Z,6.50
2022-11-12T05:21:51.361Z,6.50
2022-11-12T05:24:40.391Z,6.70
2022-11-12T05:26:47.209Z,6.70
2022-11-12T05:29:14.735Z,6.70
2022-11-12T05:31:42.338Z,6.60
2022-11-12T05:34:09.875Z,6.60
2022-11-12T05:36:38.160Z,6.50
2022-11-12T05:39:05.725Z,6.50
2022-11-12T05:41:57.942Z,6.50
2022-11-12T05:44:00.790Z,6.50
2022-11-12T05:46:29.337Z,6.50
2022-11-12T05:48:56.862Z,6.70
2022-11-12T05:51:25.158Z,6.90
2022-11-12T05:53:52.721Z,6.90
2022-11-12T05:56:20.268Z,6.80
2022-11-12T05:58:48.578Z,6.70
2022-11-12T06:01:16.146Z,6.60
2022-11-12T06:03:43.681Z,6.60
2022-11-12T06:06:11.205Z,6.50
2022-11-12T06:08:39.646Z,6.40
2022-11-12T06:11:07.199Z,6.50
2022-11-12T06:13:35.806Z,6.40
2022-11-12T06:16:03.370Z,6.40
2022-11-12T06:18:30.915Z,6.40
2022-11-12T06:21:19.624Z,6.60
2022-11-12T06:23:47.169Z,6.60
2022-11-12T06:26:15.453Z,6.60
2022-11-12T06:28:43.089Z,6.60
2022-11-12T06:31:10.558Z,6.60
2022-11-12T06:33:38.086Z,6.50
2022-11-12T06:36:05.720Z,6.50
2022-11-12T06:38:33.322Z,6.50
2022-11-12T06:41:00.837Z,6.50
2022-11-12T06:43:29.309Z,6.40
2022-11-12T06:45:59.736Z,6.40
2022-11-12T06:48:27.492Z,6.70
2022-11-12T06:50:54.873Z,6.70
2022-11-12T06:53:22.429Z,6.60
2022-11-12T06:55:49.981Z,6.60
2022-11-12T06:58:17.948Z,6.50
2022-11-12T07:00:45.497Z,6.50
2022-11-12T07:03:13.044Z,6.50
2022-11-12T07:05:40.629Z,6.40
2022-11-12T07:08:08.175Z,6.40
2022-11-12T07:10:35.696Z,6.40
2022-11-12T07:13:04.012Z,6.30
2022-11-12T07:15:31.548Z,6.30
2022-11-12T07:17:59.870Z,6.20
2022-11-12T07:20:27.443Z,6.20
2022-11-12T07:22:54.976Z,6.20
2022-11-12T07:25:22.521Z,6.20
2022-11-12T07:27:50.088Z,6.40
2022-11-12T07:30:17.620Z,6.40
2022-11-12T07:32:51.669Z,6.40
2022-11-12T07:35:13.624Z,6.30
2022-11-12T07:37:41.166Z,6.30
2022-11-12T07:40:08.782Z,6.30
2022-11-12T07:42:37.443Z,6.50
2022-11-12T07:45:05.223Z,6.50
2022-11-12T07:47:33.533Z,6.50
2022-11-12T07:50:01.106Z,6.50
2022-11-12T07:52:28.637Z,6.50
2022-11-12T07:54:56.168Z,6.40
2022-11-12T07:57:24.570Z,6.40
2022-11-12T07:59:52.109Z,6.40
2022-11-12T08:02:20.418Z,6.30
2022-11-12T08:04:48.302Z,6.40
2022-11-12T08:07:15.945Z,6.40
2022-11-12T08:09:44.096Z,6.40
2022-11-12T08:12:12.447Z,6.40
2022-11-12T08:14:39.985Z,6.40
2022-11-12T08:17:07.520Z,6.40
2022-11-12T08:19:35.190Z,6.50
2022-11-12T08:22:02.715Z,6.70
2022-11-12T08:24:30.257Z,6.80
2022-11-12T08:26:58.599Z,6.70
2022-11-12T08:29:26.135Z,6.70
2022-11-12T08:31:53.646Z,6.70
2022-11-12T08:34:22.935Z,6.60
2022-11-12T08:36:50.343Z,6.70
2022-11-12T08:39:17.890Z,6.60
2022-11-12T08:41:45.499Z,6.70
2022-11-12T08:44:13.024Z,6.70
2022-11-12T08:46:40.567Z,6.70
2022-11-12T08:49:08.141Z,6.80
2022-11-12T08:51:35.680Z,6.80
2022-11-12T08:54:03.214Z,6.80
2022-11-12T08:56:30.782Z,6.90
2022-11-12T08:58:59.074Z,6.90
2022-11-12T09:01:26.660Z,6.90
2022-11-12T09:03:54.187Z,6.90
2022-11-12T09:06:22.475Z,6.90
2022-11-12T09:08:49.998Z,6.80
2022-11-12T09:11:17.918Z,6.90
2022-11-12T09:13:45.514Z,6.90
2022-11-12T09:16:16.482Z,6.90
2022-11-12T09:18:45.462Z,6.90
2022-11-12T09:21:13.003Z,6.90
2022-11-12T09:23:40.544Z,7.00
2022-11-12T09:26:09.108Z,7.20
2022-11-12T09:28:36.589Z,7.30
2022-11-12T09:31:04.139Z,7.30
2022-11-12T09:33:32.007Z,7.30
2022-11-12T09:36:02.391Z,7.20
2022-11-12T09:38:30.678Z,7.30
2022-11-12T09:41:04.199Z,7.20
2022-11-12T09:43:40.668Z,7.30
2022-11-12T09:46:27.113Z,7.30
2022-11-12T09:48:40.988Z,7.30
2022-11-12T09:51:11.654Z,7.30
2022-11-12T09:53:57.561Z,7.40
2022-11-12T09:56:25.076Z,7.40
2022-11-12T09:58:52.621Z,7.50
2022-11-12T10:01:41.363Z,7.50
2022-11-12T10:04:23.500Z,7.80
2022-11-12T10:06:51.155Z,7.90
2022-11-12T10:09:21.244Z,7.90
2022-11-12T10:12:13.474Z,8.00
2022-11-12T10:15:24.605Z,8.00
2022-11-12T10:18:16.160Z,8.00
2022-11-12T10:20:49.474Z,8.00
2022-11-12T10:23:23.547Z,8.00
2022-11-12T10:25:51.082Z,8.00
2022-11-12T10:28:21.539Z,8.00
2022-11-12T10:30:49.112Z,8.20
2022-11-12T10:33:16.636Z,8.30
2022-11-12T10:35:44.180Z,8.30
2022-11-12T10:38:16.521Z,8.50
2022-11-12T10:40:43.986Z,8.50
2022-11-12T10:43:18.007Z,8.50
2022-11-12T10:45:45.611Z,8.50
2022-11-12T10:48:27.476Z,8.50
2022-11-12T10:50:53.437Z,8.50
2022-11-12T10:53:32.698Z,8.50
2022-11-12T10:56:01.082Z,8.80
2022-11-12T10:58:29.738Z,8.80
2022-11-12T11:00:59.945Z,8.70
2022-11-12T11:03:30.674Z,8.70
2022-11-12T11:06:04.209Z,8.70
2022-11-12T11:08:44.417Z,8.80
2022-11-12T11:11:14.612Z,8.80
2022-11-12T11:13:42.139Z,8.90
2022-11-12T11:16:15.427Z,8.90
2022-11-12T11:18:42.947Z,8.80
2022-11-12T11:21:40.742Z,9.00
2022-11-12T11:24:38.926Z,9.00
2022-11-12T11:27:18.892Z,8.90
2022-11-12T11:30:06.562Z,9.30
2022-11-12T11:33:04.315Z,9.20
2022-11-12T11:35:50.138Z,9.20
2022-11-12T11:38:36.117Z,9.10
2022-11-12T11:41:18.322Z,9.10
2022-11-12T11:43:51.878Z,9.10
2022-11-12T11:46:37.661Z,9.10
2022-11-12T11:49:17.988Z,9.10
2022-11-12T11:51:51.765Z,9.10
2022-11-12T11:54:53.210Z,9.20
2022-11-12T11:57:23.271Z,9.20
2022-11-12T12:00:08.998Z,9.30
2022-11-12T12:02:51.283Z,9.40
2022-11-12T12:05:37.254Z,9.70
2022-11-12T12:08:13.904Z,9.70
2022-11-12T12:11:07.441Z,9.70
2022-11-12T12:13:29.775Z,9.70
2022-11-12T12:16:34.864Z,9.60
2022-11-12T12:19:07.835Z,9.60
2022-11-12T12:21:35.529Z,9.60
2022-11-12T12:24:09.791Z,10.10
2022-11-12T12:26:47.268Z,10.10
2022-11-12T12:29:23.762Z,10.10
2022-11-12T12:31:52.099Z,10.00
2022-11-12T12:34:25.283Z,10.00
2022-11-12T12:36:54.615Z,9.90
2022-11-12T12:39:30.834Z,9.90
2022-11-12T12:42:05.308Z,9.90
2022-11-12T12:44:41.457Z,9.90
2022-11-12T12:47:09.041Z,10.00
2022-11-12T12:49:36.594Z,10.00
2022-11-12T12:52:04.130Z,10.00
2022-11-12T12:54:38.140Z,10.00
2022-11-12T12:57:05.674Z,10.10
2022-11-12T12:59:33.217Z,10.10
2022-11-12T13:02:00.794Z,10.20
2022-11-12T13:04:50.800Z,10.30
2022-11-12T13:07:18.486Z,10.20
2022-11-12T13:09:45.940Z,10.30
2022-11-12T13:12:13.472Z,10.30
2022-11-12T13:14:41.053Z,10.40
2022-11-12T13:17:08.613Z,10.40
2022-11-12T13:19:36.155Z,10.40
2022-11-12T13:22:18.832Z,10.50
2022-11-12T13:25:04.754Z,10.50
2022-11-12T13:27:41.268Z,10.60
2022-11-12T13:30:14.489Z,10.80
2022-11-12T13:32:44.607Z,10.90
2022-11-12T13:35:30.796Z,11.40
2022-11-12T13:38:01.128Z,11.40
2022-11-12T13:40:53.721Z,11.30
2022-11-12T13:43:29.702Z,11.20
2022-11-12T13:46:11.896Z,11.20
2022-11-12T13:48:44.913Z,11.10
2022-11-12T13:51:40.228Z,11.10
2022-11-12T13:54:34.992Z,11.00
2022-11-12T13:57:20.405Z,11.00
2022-11-12T13:59:48.694Z,11.10
2022-11-12T14:02:25.912Z,11.10
2022-11-12T14:04:53.454Z,11.10
2022-11-12T14:07:51.547Z,11.10
2022-11-12T14:10:33.787Z,11.10
2022-11-12T14:13:25.965Z,11.00
2022-11-12T14:16:24.378Z,11.00
2022-11-12T14:19:16.099Z,10.90
2022-11-12T14:21:43.634Z,10.90
2022-11-12T14:24:11.187Z,10.90
2022-11-12T14:26:38.772Z,11.10
2022-11-12T14:29:06.306Z,11.10
2022-11-12T14:31:33.859Z,11.20
2022-11-12T14:34:20.233Z,11.40
2022-11-12T14:36:47.784Z,11.40
2022-11-12T14:39:15.350Z,11.40
2022-11-12T14:41:42.943Z,11.30
2022-11-12T14:44:13.418Z,11.30
2022-11-12T14:46:47.054Z,11.50
2022-11-12T14:49:17.742Z,11.50
2022-11-12T14:51:47.899Z,11.50
2022-11-12T14:54:15.466Z,11.40
2022-11-12T14:56:45.706Z,11.40
2022-11-12T14:59:13.241Z,11.30
2022-11-12T15:02:21.697Z,11.30
2022-11-12T15:04:13.215Z,11.20
2022-11-12T15:06:40.779Z,11.20
2022-11-12T15:09:08.288Z,11.20
2022-11-12T15:11:47.659Z,11.20
2022-11-12T15:14:21.230Z,11.20
2022-11-12T15:16:49.529Z,11.40
2022-11-12T15:19:25.910Z,11.30
2022-11-12T15:21:55.944Z,11.30
2022-11-12T15:24:35.232Z,11.20
2022-11-12T15:27:03.530Z,11.10
2022-11-12T15:29:33.927Z,11.00
2022-11-12T15:32:13.941Z,10.90
2022-11-12T15:34:41.902Z,11.00
2022-11-12T15:37:10.264Z,10.90
2022-11-12T15:39:40.763Z,10.80
2022-11-12T15:42:14.934Z,11.00
2022-11-12T15:44:42.437Z,11.00
2022-11-12T15:47:10.972Z,10.90
2022-11-12T15:49:38.496Z,10.90
2022-11-12T15:52:06.058Z,10.80
2022-11-12T15:54:38.155Z,10.70
2022-11-12T15:57:01.175Z,10.70
2022-11-12T15:59:28.726Z,10.60
2022-11-12T16:01:56.319Z,10.60
2022-11-12T16:04:23.859Z,10.50
2022-11-12T16:06:51.418Z,10.50
2022-11-12T16:09:19.773Z,10.40
2022-11-12T16:11:48.094Z,10.30
2022-11-12T16:14:15.618Z,10.30
2022-11-12T16:16:43.222Z,10.30
2022-11-12T16:19:16.001Z,10.20
2022-11-12T16:21:43.535Z,10.20
2022-11-12T16:24:11.104Z,10.10
2022-11-12T16:26:38.634Z,10.10
2022-11-12T16:29:12.346Z,10.10
2022-11-12T16:31:40.836Z,10.00
2022-11-12T16:34:08.371Z,10.00
2022-11-12T16:36:35.915Z,9.90
2022-11-12T16:39:05.262Z,9.80
2022-11-12T16:41:32.709Z,9.80
2022-11-12T16:44:00.246Z,9.80
2022-11-12T16:46:31.813Z,9.70
2022-11-12T16:48:59.347Z,9.70
2022-11-12T16:51:27.643Z,9.60
2022-11-12T16:53:55.208Z,9.60
2022-11-12T16:56:22.744Z,9.50
2022-11-12T16:58:51.065Z,9.50
2022-11-12T17:01:27.651Z,9.50
2022-11-12T17:03:55.884Z,9.40
2022-11-12T17:06:23.429Z,9.40
2022-11-12T17:08:54.442Z,9.30
2022-11-12T17:11:21.975Z,9.30
2022-11-12T17:13:49.529Z,9.30
2022-11-12T17:16:17.114Z,9.20
2022-11-12T17:18:44.645Z,9.20
2022-11-12T17:21:12.174Z,9.20
2022-11-12T17:23:39.765Z,9.40
2022-11-12T17:26:07.302Z,9.40
2022-11-12T17:28:34.832Z,9.30
2022-11-12T17:31:03.184Z,9.10
2022-11-12T17:33:30.793Z,9.10
2022-11-12T17:36:00.946Z,9.00
2022-11-12T17:38:28.537Z,9.20
2022-11-12T17:40:59.535Z,9.10
2022-11-12T17:43:27.167Z,9.10
2022-11-12T17:45:54.588Z,8.90
2022-11-12T17:48:22.104Z,8.80
2022-11-12T17:50:49.629Z,8.70
2022-11-12T17:53:19.192Z,8.60
2022-11-12T17:55:46.737Z,8.60
2022-11-12T17:58:14.262Z,8.50
2022-11-12T18:00:41.846Z,8.50
2022-11-12T18:03:09.376Z,8.40
2022-11-12T18:05:37.677Z,8.30
2022-11-12T18:08:06.144Z,8.30
2022-11-12T18:10:33.666Z,8.30
2022-11-12T18:13:01.218Z,8.30
2022-11-12T18:15:28.794Z,8.30
2022-11-12T18:17:57.098Z,8.50
2022-11-12T18:20:24.632Z,8.50
2022-11-12T18:22:53.891Z,8.40
2022-11-12T18:25:21.421Z,8.40
2022-11-12T18:27:48.970Z,8.30
2022-11-12T18:30:19.490Z,8.20
2022-11-12T18:32:44.830Z,8.20
2022-11-12T18:35:12.359Z,8.10
2022-11-12T18:37:40.787Z,8.00
2022-11-12T18:40:08.451Z,8.00
2022-11-12T18:42:35.985Z,8.00
2022-11-12T18:45:03.593Z,7.90
2022-11-12T18:47:31.152Z,8.10
2022-11-12T18:49:58.818Z,8.10
2022-11-12T18:52:26.454Z,8.30
2022-11-12T18:54:53.833Z,8.30
2022-11-12T18:57:21.368Z,8.10
2022-11-12T18:59:48.942Z,8.00
2022-11-12T19:02:16.467Z,7.90
2022-11-12T19:04:45.543Z,8.10
2022-11-12T19:07:11.614Z,8.30
2022-11-12T19:09:39.115Z,8.20
2022-11-12T19:12:06.641Z,8.10
2022-11-12T19:14:34.291Z,8.00
2022-11-12T19:17:01.815Z,7.90
2022-11-12T19:19:29.363Z,7.70
2022-11-12T19:21:56.934Z,7.60
2022-11-12T19:24:24.488Z,7.50
2022-11-12T19:26:52.023Z,7.50
2022-11-12T19:29:19.608Z,7.40
2022-11-12T19:31:47.147Z,7.40
2022-11-12T19:34:14.837Z,7.30
2022-11-12T19:36:42.451Z,7.30
2022-11-12T19:39:09.943Z,7.20
2022-11-12T19:41:37.469Z,7.20
2022-11-12T19:44:05.821Z,7.40
2022-11-12T19:46:33.348Z,7.40
2022-11-12T19:49:00.873Z,7.30
2022-11-12T19:51:28.436Z,7.60
2022-11-12T19:53:55.974Z,7.50
2022-11-12T19:56:24.285Z,7.40
2022-11-12T19:58:51.860Z,7.40
2022-11-12T20:01:19.529Z,7.40
2022-11-12T20:03:46.921Z,7.40
2022-11-12T20:06:14.514Z,7.30
2022-11-12T20:08:42.041Z,7.30
2022-11-12T20:11:10.356Z,7.30
2022-11-12T20:13:37.935Z,7.30
2022-11-12T20:16:23.857Z,7.30
2022-11-12T20:18:49.820Z,7.30
2022-11-12T20:21:13.612Z,7.30
2022-11-12T20:23:41.129Z,7.20
2022-11-12T20:26:09.476Z,7.30
2022-11-12T20:28:37.017Z,7.20
2022-11-12T20:31:04.547Z,7.40
2022-11-12T20:33:32.134Z,7.70
2022-11-12T20:36:02.892Z,7.70
2022-11-12T20:38:30.643Z,7.60
2022-11-12T20:40:58.073Z,7.50
2022-11-12T20:43:29.165Z,7.70
2022-11-12T20:45:53.134Z,7.60
2022-11-12T20:48:20.689Z,7.60
2022-11-12T20:51:09.565Z,7.50
2022-11-12T20:53:15.758Z,7.40
2022-11-12T20:55:43.370Z,7.40
2022-11-12T20:58:10.890Z,7.30
2022-11-12T21:00:38.440Z,7.30
2022-11-12T21:03:06.029Z,7.30
2022-11-12T21:05:33.565Z,7.30
2022-11-12T21:08:01.132Z,7.30
2022-11-12T21:10:28.686Z,7.30
2022-11-12T21:12:56.226Z,7.20
2022-11-12T21:15:23.749Z,7.20
2022-11-12T21:17:51.335Z,7.20
2022-11-12T21:20:19.629Z,7.10
2022-11-12T21:22:47.174Z,7.10
2022-11-12T21:25:15.365Z,7.10
2022-11-12T21:27:43.864Z,7.10
2022-11-12T21:30:11.435Z,7.10
2022-11-12T21:32:39.010Z,7.10
2022-11-12T21:35:06.681Z,7.10
2022-11-12T21:37:34.230Z,7.30
2022-11-12T21:40:02.816Z,7.60
2022-11-12T21:42:30.355Z,7.60
2022-11-12T21:44:57.879Z,7.50
2022-11-12T21:47:25.463Z,7.70
2022-11-12T21:49:52.989Z,7.60
2022-11-12T21:52:20.514Z,7.50
2022-11-12T21:54:48.091Z,7.50
2022-11-12T21:57:18.884Z,7.30
2022-11-12T21:59:43.957Z,7.30
2022-11-12T22:02:14.496Z,7.30
2022-11-12T22:04:41.971Z,7.20
2022-11-12T22:07:09.560Z,7.20
2022-11-12T22:09:37.100Z,7.20
2022-11-12T22:12:04.688Z,7.30
2022-11-12T22:14:32.997Z,7.30
2022-11-12T22:17:00.570Z,7.20
2022-11-12T22:19:28.097Z,7.20
2022-11-12T22:21:55.628Z,7.20
2022-11-12T22:24:24.253Z,7.10
2022-11-12T22:26:51.785Z,7.00
2022-11-12T22:29:20.244Z,7.00
2022-11-12T22:31:47.812Z,7.00
2022-11-12T22:34:15.335Z,7.00
2022-11-12T22:36:50.614Z,6.90
2022-11-12T22:39:12.539Z,6.90
2022-11-12T22:41:40.415Z,6.80
2022-11-12T22:44:09.871Z,6.80
2022-11-12T22:46:38.406Z,6.70
2022-11-12T22:49:06.968Z,6.70
2022-11-12T22:51:37.605Z,6.70
2022-11-12T22:54:05.760Z,6.70
2022-11-12T22:56:38.392Z,6.80
2022-11-12T22:59:06.178Z,6.80
2022-11-12T23:01:40.982Z,6.80
2022-11-12T23:04:07.433Z,6.90
2022-11-12T23:06:36.047Z,6.80
2022-11-12T23:09:04.917Z,6.70
2022-11-12T23:11:33.507Z,6.70
2022-11-12T23:14:03.109Z,6.70
2022-11-12T23:16:32.919Z,6.70
2022-11-12T23:19:01.703Z,6.60
2022-11-12T23:21:30.287Z,6.60
2022-11-12T23:24:00.123Z,6.60
2022-11-12T23:26:28.661Z,6.60
2022-11-12T23:28:56.453Z,6.50
2022-11-12T23:31:24.172Z,6.60
2022-11-12T23:33:54.310Z,6.50
2022-11-12T23:36:23.484Z,6.50
2022-11-12T23:38:52.389Z,6.50
2022-11-12T23:41:21.577Z,6.70
2022-11-12T23:43:55.600Z,6.70
2022-11-12T23:46:23.930Z,6.90
2022-11-12T23:48:51.485Z,6.90
2022-11-12T23:51:19.010Z,6.80
2022-11-12T23:53:46.600Z,6.70
2022-11-12T23:56:14.144Z,6.90
2022-11-12T23:58:41.680Z,6.90
